»·PEaware :: N82806 KSMX-KBFL

N82806 :: KSMX-KBFL

FLIGHT INFORMATION

Flight Status: Arrived
Operator: Privately registered:
United States
More flights under this callsign
Pilot: Gregory A. (9731)
Aircraft: PIPER PA-34 SENECA
(PA34)
More flights by this aircraft type
Origin: KSMX Santa Maria Pub/Capt Hancock
United States
Destination: KBFL Meadows
United States
More flights between these airports :: More routes between these airports
Route: FLW
File this flight plan on PilotEdge
Remarks: CAT5
Altitude:
(Current/Filed)
7,500ft
Speed:
(Current/Filed)
180kts
Departed: 08-Oct-17 08:52 AM
Arrived: 08-Oct-17 09:25 AM
Distance/Time
Traveled:
76nm/0:32
Distance/Time
To Go:
Arrived

Flight Plot

Page will automatically refresh every two minutes.


Map Options




Map Legend


Flown Route
Filed Route
Departure Airport
Arrival Airport
Navaid (VOR, NDB)
Fix

Horizontal Profiles

Position Reports

Time Latitude Longitude Heading Altitude Ground
Speed
08-Oct-17 08:36 34.906890 -120.458253 312 264ft 0kts
08-Oct-17 08:37 34.907118 -120.458279 35 264ft 0kts
08-Oct-17 08:38 34.907119 -120.458278 35 264ft 0kts
08-Oct-17 08:39 34.907120 -120.458277 35 264ft 0kts
08-Oct-17 08:40 34.907121 -120.458276 35 264ft 0kts
08-Oct-17 08:41 34.907122 -120.458275 35 264ft 0kts
08-Oct-17 08:42 34.907124 -120.458274 35 264ft 0kts
08-Oct-17 08:43 34.907125 -120.458273 35 264ft 0kts
08-Oct-17 08:44 34.907126 -120.458272 35 264ft 0kts
08-Oct-17 08:45 34.907126 -120.458272 35 264ft 0kts
08-Oct-17 08:46 34.907126 -120.458272 35 264ft 0kts
08-Oct-17 08:47 34.907126 -120.458272 35 264ft 0kts
08-Oct-17 08:48 34.907126 -120.458272 35 264ft 0kts
08-Oct-17 08:49 34.906784 -120.458089 152 264ft 0kts
08-Oct-17 08:50 34.906294 -120.458308 230 264ft 15kts
08-Oct-17 08:51 34.904287 -120.457086 137 264ft 18kts
08-Oct-17 08:52 34.899024 -120.451073 135 264ft 29kts
08-Oct-17 08:53 34.893532 -120.445718 185 264ft 10kts
08-Oct-17 08:54 34.893494 -120.445724 190 264ft 0kts
08-Oct-17 08:55 34.893294 -120.446442 315 264ft 19kts
08-Oct-17 08:56 34.914154 -120.454723 54 782ft 126kts
08-Oct-17 08:57 34.917548 -120.413227 44 1746ft 132kts
08-Oct-17 08:58 34.935930 -120.376825 72 2942ft 127kts
08-Oct-17 08:59 34.947150 -120.336144 70 4134ft 126kts
08-Oct-17 09:00 34.958819 -120.295635 65 5320ft 126kts
08-Oct-17 09:01 34.971688 -120.255953 63 6478ft 126kts
08-Oct-17 09:02 34.984813 -120.216223 64 7553ft 132kts
08-Oct-17 09:03 35.003691 -120.167197 62 7628ft 180kts
08-Oct-17 09:04 35.024922 -120.109606 65 7620ft 190kts
08-Oct-17 09:05 35.044905 -120.049472 67 7619ft 192kts
08-Oct-17 09:06 35.064080 -119.988440 67 7618ft 191kts
08-Oct-17 09:07 35.081735 -119.928552 69 7618ft 185kts
08-Oct-17 09:08 35.097995 -119.869530 56 7659ft 179kts
08-Oct-17 09:09 35.125049 -119.817971 56 7371ft 185kts
08-Oct-17 09:10 35.150268 -119.762473 59 6875ft 188kts
08-Oct-17 09:11 35.174857 -119.705501 59 6263ft 191kts
08-Oct-17 09:12 35.199289 -119.648102 60 5647ft 181kts
08-Oct-17 09:13 35.220643 -119.594191 61 5191ft 176kts
08-Oct-17 09:14 35.235940 -119.537799 79 4529ft 176kts
08-Oct-17 09:15 35.251650 -119.481917 65 3866ft 173kts
08-Oct-17 09:16 35.272356 -119.431428 62 3652ft 156kts
08-Oct-17 09:17 35.292125 -119.385943 62 3654ft 148kts
08-Oct-17 09:18 35.311077 -119.341444 63 3652ft 147kts
08-Oct-17 09:19 35.329912 -119.296892 63 3644ft 146kts
08-Oct-17 09:20 35.349331 -119.250019 63 3092ft 160kts
08-Oct-17 09:21 35.372160 -119.203550 68 2654ft 154kts
08-Oct-17 09:22 35.386391 -119.157248 82 2639ft 139kts
08-Oct-17 09:23 35.380248 -119.111602 104 2646ft 135kts
08-Oct-17 09:24 35.371101 -119.067065 104 2523ft 133kts
08-Oct-17 09:25 35.384639 -119.026737 67 1858ft 125kts
08-Oct-17 09:26 35.406342 -119.010929 301 1289ft 114kts
08-Oct-17 09:27 35.422332 -119.042666 316 686ft 100kts
08-Oct-17 09:28 35.437667 -119.060746 318 510ft 41kts
08-Oct-17 09:29 35.438539 -119.060861 73 510ft 0kts
08-Oct-17 09:30 35.436819 -119.057322 136 510ft 32kts
08-Oct-17 09:31 35.435854 -119.051209 25 510ft 23kts
08-Oct-17 09:32 35.436036 -119.051102 24 510ft 0kts
08-Oct-17 09:33 35.436036 -119.051102 24 510ft 0kts
08-Oct-17 09:34 35.436037 -119.051101 24 510ft 0kts
08-Oct-17 09:36 35.436038 -119.051101 24 510ft 0kts
08-Oct-17 09:37 35.436039 -119.051100 24 510ft 0kts

Navigation Log

Ident Type
1. KSMX Airport
2. FLW Navaid
3. KBFL Airport